Time;durP1;ratioP1;P1;durP2;ratioP2;P2;SDS_P1;SDS_P2;PMS_P1;PMS_P2;Temp;Humidity;BMP_temperature;BMP_pressure;BME280_temperature;BME280_humidity;BME280_pressure;Samples;Min_cycle;Max_cycle;Signal;HPM_P1;HPM_P2
2022/04/20 04:31:37;;;;;;;;;;;;;;;8.70;100.00;97921.91;4900710;29;20268;-75
2022/04/20 04:34:05;;;;;;;;;;;;;;;8.68;100.00;97927.84;4903639;29;20212;-75
2022/04/20 04:36:32;;;;;;;;;;;;;;;8.73;100.00;97935.84;4888011;29;20324;-75
2022/04/20 04:39:00;;;;;;;;;;;;;;;8.71;100.00;97934.63;4888127;29;19957;-74
2022/04/20 04:41:32;;;;;;;;;;;;;;;8.70;100.00;97947.00;4886772;29;19966;-74
2022/04/20 04:44:01;;;;;;;;;;;;;;;8.78;100.00;97946.59;4888014;29;19954;-75
2022/04/20 04:49:39;;;;;;;;;;;;;;;8.80;100.00;97960.97;4902629;29;19956;-76
2022/04/20 04:52:11;;;;;;;;;;;;;;;8.70;100.00;97958.13;4899533;29;20336;-74
2022/04/20 04:54:42;;;;;;;;;;;;;;;8.71;100.00;97966.09;4903436;29;19956;-76
2022/04/20 04:57:12;;;;;;;;;;;;;;;8.73;100.00;97974.88;4886600;29;19951;-74
2022/04/20 04:59:42;;;;;;;;;;;;;;;8.78;100.00;97979.28;4887617;29;20362;-75
2022/04/20 05:02:11;;;;;;;;;;;;;;;8.75;100.00;97974.50;4885341;29;19965;-76
2022/04/20 05:04:40;;;;;;;;;;;;;;;8.81;100.00;97982.06;4883270;29;19957;-75
2022/04/20 05:07:09;;;;;;;;;;;;;;;8.75;100.00;97980.88;4886222;29;19978;-75
2022/04/20 05:09:59;;;;;;;;;;;;;;;8.73;100.00;97979.66;4871931;29;20244;-75
2022/04/20 05:12:28;;;;;;;;;;;;;;;8.83;100.00;97984.44;4894071;29;19981;-75
2022/04/20 05:14:56;;;;;;;;;;;;;;;8.86;100.00;97986.44;4898046;29;19954;-75
2022/04/20 05:17:23;;;;;;;;;;;;;;;8.85;100.00;97993.25;4880393;29;19954;-75
2022/04/20 05:19:51;;;;;;;;;;;;;;;8.86;100.00;97990.03;4898631;29;19954;-75
2022/04/20 05:22:22;;;;;;;;;;;;;;;8.89;100.00;97992.06;4884308;29;19973;-76
2022/04/20 05:24:51;;;;;;;;;;;;;;;8.89;100.00;97994.84;4897995;29;19955;-75
2022/04/20 05:27:20;;;;;;;;;;;;;;;8.95;100.00;97993.25;4885181;29;20266;-76
2022/04/20 05:30:04;;;;;;;;;;;;;;;8.89;100.00;97988.47;4880438;29;19974;-75
2022/04/20 05:32:32;;;;;;;;;;;;;;;8.93;100.00;97994.84;4882944;29;19950;-75
2022/04/20 05:35:02;;;;;;;;;;;;;;;8.93;100.00;97994.84;4886771;29;19952;-75
2022/04/20 05:43:06;;;;;;;;;;;;;;;8.88;100.00;98000.78;4899670;29;19990;-75
2022/04/20 05:45:33;;;;;;;;;;;;;;;8.79;100.00;97995.59;4884981;29;20250;-75
2022/04/20 05:48:15;;;;;;;;;;;;;;;8.82;100.00;97996.81;4886705;29;19964;-76
2022/04/20 05:50:43;;;;;;;;;;;;;;;8.90;100.00;97999.22;4901026;29;19950;-75
2022/04/20 05:53:10;;;;;;;;;;;;;;;8.92;100.00;98002.44;4902908;29;20242;-75
2022/04/20 05:55:39;;;;;;;;;;;;;;;8.93;100.00;97997.63;4885840;29;19954;-76
2022/04/20 05:58:06;;;;;;;;;;;;;;;8.79;100.00;97998.38;4885946;29;19957;-76
2022/04/20 06:00:34;;;;;;;;;;;;;;;8.92;100.00;97998.84;4885694;29;20283;-76
2022/04/20 06:03:27;;;;;;;;;;;;;;;8.95;100.00;97989.69;4883653;29;19974;-76
2022/04/20 06:06:03;;;;;;;;;;;;;;;8.88;100.00;97998.00;4882854;29;20367;-75
2022/04/20 06:08:49;;;;;;;;;;;;;;;8.89;100.00;97997.63;4882951;29;19949;-76
2022/04/20 06:11:31;;;;;;;;;;;;;;;8.90;100.00;97985.25;4867686;29;19951;-76
2022/04/20 06:13:59;;;;;;;;;;;;;;;9.11;100.00;97987.31;4867300;29;19947;-76
2022/04/20 06:16:35;;;;;;;;;;;;;;;8.94;100.00;97993.66;4867650;29;19962;-75
2022/04/20 06:19:10;;;;;;;;;;;;;;;8.99;100.00;97996.06;4882959;29;19948;-76
2022/04/20 06:21:53;;;;;;;;;;;;;;;9.03;100.00;97996.84;4851357;29;20808;-76
2022/04/20 06:24:41;;;;;;;;;;;;;;;8.89;100.00;97999.63;4883157;29;20325;-76
2022/04/20 06:27:29;;;;;;;;;;;;;;;8.98;100.00;98000.03;4873332;29;19960;-76
2022/04/20 06:30:29;;;;;;;;;;;;;;;9.10;100.00;98008.03;4882746;29;19976;-76
2022/04/20 06:33:13;;;;;;;;;;;;;;;9.11;100.00;98004.06;4901745;29;20240;-76
2022/04/20 06:36:00;;;;;;;;;;;;;;;9.17;100.00;98011.63;4902850;29;20279;-76
2022/04/20 06:38:36;;;;;;;;;;;;;;;9.10;100.00;98008.03;4902329;29;19956;-75
2022/04/20 06:41:14;;;;;;;;;;;;;;;9.17;100.00;98016.41;4901276;29;19956;-75
2022/04/20 06:43:57;;;;;;;;;;;;;;;9.17;100.00;98006.06;4885243;29;19968;-76
2022/04/20 06:46:45;;;;;;;;;;;;;;;9.22;100.00;98007.66;4901374;29;19964;-76
2022/04/20 06:49:15;;;;;;;;;;;;;;;9.32;100.00;98006.88;4902330;29;20032;-75
2022/04/20 07:00:32;;;;;;;;;;;;;;;9.34;100.00;98015.63;4871570;29;20343;-75
2022/04/20 07:03:26;;;;;;;;;;;;;;;9.38;100.00;98012.88;4854771;29;19970;-76
2022/04/20 07:06:02;;;;;;;;;;;;;;;9.41;100.00;98010.09;4882083;29;20027;-76
2022/04/20 07:08:36;;;;;;;;;;;;;;;9.48;100.00;98018.47;4882314;29;20254;-76
2022/04/20 07:11:15;;;;;;;;;;;;;;;9.58;100.00;98011.28;4865875;29;19950;-76
2022/04/20 07:13:43;;;;;;;;;;;;;;;9.54;100.00;98016.84;4882957;29;19952;-76
2022/04/20 07:16:11;;;;;;;;;;;;;;;9.61;100.00;98018.88;4882377;29;19957;-76
2022/04/20 07:18:41;;;;;;;;;;;;;;;9.66;100.00;98021.25;4866601;29;19957;-76
2022/04/20 07:21:33;;;;;;;;;;;;;;;9.63;100.00;98024.84;4866475;29;20256;-76
2022/04/20 07:24:31;;;;;;;;;;;;;;;9.65;100.00;98022.47;4874436;29;19973;-76
2022/04/20 07:26:58;;;;;;;;;;;;;;;9.67;100.00;98026.44;4882791;29;19957;-75
2022/04/20 07:29:31;;;;;;;;;;;;;;;9.70;100.00;98028.44;4881199;29;19960;-75
2022/04/20 07:32:18;;;;;;;;;;;;;;;9.75;100.00;98027.25;4882115;29;20253;-76
2022/04/20 07:34:45;;;;;;;;;;;;;;;9.82;100.00;98028.06;4899292;29;19952;-76
2022/04/20 07:37:12;;;;;;;;;;;;;;;9.83;100.00;98031.63;4901397;29;19960;-76
2022/04/20 07:40:15;;;;;;;;;;;;;;;9.85;100.00;98032.03;4869297;29;19949;-76
2022/04/20 07:42:59;;;;;;;;;;;;;;;9.97;100.00;98030.81;4885046;29;19972;-76
2022/04/20 07:45:46;;;;;;;;;;;;;;;9.94;100.00;98035.22;4891215;29;19949;-76
2022/04/20 07:48:32;;;;;;;;;;;;;;;9.98;100.00;98035.22;4884898;29;19950;-76
2022/04/20 07:51:19;;;;;;;;;;;;;;;9.85;100.00;98026.44;4884163;29;19958;-76
2022/04/20 07:53:59;;;;;;;;;;;;;;;9.83;100.00;98043.59;4884728;29;19949;-76
2022/04/20 07:56:39;;;;;;;;;;;;;;;9.91;100.00;98038.81;4885141;29;19946;-75
2022/04/20 07:59:22;;;;;;;;;;;;;;;9.89;100.00;98044.78;4884398;29;20340;-75
2022/04/20 08:02:07;;;;;;;;;;;;;;;9.80;100.00;98043.59;4901390;29;19946;-75
2022/04/20 08:04:41;;;;;;;;;;;;;;;9.77;100.00;98049.97;4900998;29;19971;-76
2022/04/20 08:07:14;;;;;;;;;;;;;;;9.76;100.00;98040.00;4884975;29;19949;-76
2022/04/20 08:09:41;;;;;;;;;;;;;;;9.84;100.00;98041.59;4884686;29;20227;-75
2022/04/20 08:12:09;;;;;;;;;;;;;;;9.83;100.00;98049.19;4884545;29;19964;-76
2022/04/20 08:14:37;;;;;;;;;;;;;;;9.72;100.00;98053.97;4900159;29;19951;-76
2022/04/20 08:17:13;;;;;;;;;;;;;;;9.83;100.00;98060.34;4884994;29;19969;-75
2022/04/20 08:19:40;;;;;;;;;;;;;;;9.81;100.00;98057.16;4901167;29;20205;-76
2022/04/20 08:22:31;;;;;;;;;;;;;;;9.88;100.00;98057.16;4894620;29;20214;-76
2022/04/20 08:25:02;;;;;;;;;;;;;;;9.97;100.00;98061.56;4901209;29;19952;-75
2022/04/20 08:27:30;;;;;;;;;;;;;;;10.08;100.00;98062.34;4900744;29;19947;-76
2022/04/20 08:29:57;;;;;;;;;;;;;;;10.12;100.00;98071.56;4900647;29;19974;-75
2022/04/20 08:32:28;;;;;;;;;;;;;;;9.98;100.00;98066.72;4900958;29;19956;-75
2022/04/20 08:34:55;;;;;;;;;;;;;;;9.90;100.00;98065.16;4900581;29;19953;-75
2022/04/20 08:37:26;;;;;;;;;;;;;;;9.95;100.00;98067.53;4901371;29;19944;-75
2022/04/20 08:39:54;;;;;;;;;;;;;;;10.09;100.00;98072.31;4902362;29;19975;-75
2022/04/20 08:42:21;;;;;;;;;;;;;;;10.05;100.00;98072.31;4900335;29;20242;-75
2022/04/20 08:44:49;;;;;;;;;;;;;;;10.15;100.00;98077.13;4886026;29;20341;-75
2022/04/20 08:47:21;;;;;;;;;;;;;;;10.14;100.00;98075.53;4885373;29;20249;-75
2022/04/20 08:49:49;;;;;;;;;;;;;;;10.12;100.00;98075.16;4884647;29;19954;-75
2022/04/20 08:52:38;;;;;;;;;;;;;;;10.14;100.00;98071.94;4884517;29;19958;-75
2022/04/20 08:55:08;;;;;;;;;;;;;;;10.23;100.00;98073.13;4885137;29;19949;-76
2022/04/20 08:57:37;;;;;;;;;;;;;;;10.24;100.00;98073.94;4885276;29;19957;-76
2022/04/20 09:00:09;;;;;;;;;;;;;;;10.27;100.00;98081.53;4883973;29;20363;-76
2022/04/20 09:02:37;;;;;;;;;;;;;;;10.25;100.00;98078.31;4885412;29;19951;-76
2022/04/20 09:05:05;;;;;;;;;;;;;;;10.37;100.00;98078.69;4884541;29;19971;-75
2022/04/20 09:07:32;;;;;;;;;;;;;;;10.39;100.00;98086.69;4885193;29;19949;-75
2022/04/20 09:10:02;;;;;;;;;;;;;;;10.34;100.00;98089.91;4885017;29;19958;-76
2022/04/20 09:12:30;;;;;;;;;;;;;;;10.35;100.00;98086.69;4884597;29;19960;-75
2022/04/20 09:14:59;;;;;;;;;;;;;;;10.35;100.00;98085.88;4885480;29;19961;-76
2022/04/20 09:17:26;;;;;;;;;;;;;;;10.50;100.00;98082.69;4884826;29;19947;-76
2022/04/20 09:19:54;;;;;;;;;;;;;;;10.53;100.00;98083.88;4884725;29;19953;-75
2022/04/20 09:22:22;;;;;;;;;;;;;;;10.60;100.00;98089.44;4884263;29;19950;-75
2022/04/20 09:25:05;;;;;;;;;;;;;;;10.69;100.00;98091.81;4885149;29;19970;-76
2022/04/20 09:27:33;;;;;;;;;;;;;;;10.86;100.00;98082.56;4884458;29;20343;-76
2022/04/20 09:30:04;;;;;;;;;;;;;;;11.02;100.00;98082.91;4883493;29;19976;-75
2022/04/20 09:32:34;;;;;;;;;;;;;;;11.06;100.00;98083.69;4885053;29;19952;-75
2022/04/20 09:35:03;;;;;;;;;;;;;;;11.02;100.00;98086.50;4884637;29;19951;-76
2022/04/20 09:37:31;;;;;;;;;;;;;;;11.00;100.00;98086.09;4884446;29;20342;-76
2022/04/20 09:40:11;;;;;;;;;;;;;;;11.04;100.00;98084.09;4867936;29;19946;-75
2022/04/20 09:43:00;;;;;;;;;;;;;;;11.23;100.00;98078.00;4901025;29;19957;-75
2022/04/20 09:45:28;;;;;;;;;;;;;;;11.17;100.00;98082.44;4903617;29;19961;-76
2022/04/20 09:50:46;;;;;;;;;;;;;;;11.27;100.00;98068.81;4902016;29;19949;-76
2022/04/20 09:53:14;;;;;;;;;;;;;;;11.44;100.00;98077.13;4903031;29;19954;-76
2022/04/20 09:55:41;;;;;;;;;;;;;;;11.51;100.00;98079.88;4903464;29;20326;-76
2022/04/20 09:58:19;;;;;;;;;;;;;;;11.43;100.00;98080.31;4902987;29;19950;-76
2022/04/20 10:00:48;;;;;;;;;;;;;;;11.43;100.00;98083.09;4902932;29;19948;-76
2022/04/20 10:03:24;;;;;;;;;;;;;;;11.43;100.00;98077.50;4902557;29;19954;-75
2022/04/20 10:05:52;;;;;;;;;;;;;;;11.42;100.00;98067.53;4902544;29;19968;-76
2022/04/20 10:08:20;;;;;;;;;;;;;;;11.43;100.00;98069.09;4903258;29;19952;-75
2022/04/20 10:10:48;;;;;;;;;;;;;;;11.44;100.00;98074.31;4885604;29;20014;-76
2022/04/20 10:13:16;;;;;;;;;;;;;;;11.44;100.00;98070.72;4884242;29;19950;-76
2022/04/20 10:18:43;;;;;;;;;;;;;;;11.52;100.00;98075.03;4883769;29;19955;-76
2022/04/20 10:21:11;;;;;;;;;;;;;;;11.48;100.00;98069.47;4883340;29;19958;-76
2022/04/20 10:23:47;;;;;;;;;;;;;;;11.63;100.00;98067.38;4883919;29;19954;-76
2022/04/20 10:26:16;;;;;;;;;;;;;;;11.58;100.00;98063.03;4883820;29;19981;-75
2022/04/20 10:29:04;;;;;;;;;;;;;;;11.44;100.00;98070.72;4884221;29;19957;-75
2022/04/20 10:31:50;;;;;;;;;;;;;;;11.55;100.00;98068.63;4884086;29;19978;-76
2022/04/20 10:34:21;;;;;;;;;;;;;;;11.59;100.00;98069.41;4868385;29;19945;-75
2022/04/20 10:37:09;;;;;;;;;;;;;;;11.60;100.00;98066.19;4883534;29;19952;-76
2022/04/20 10:39:49;;;;;;;;;;;;;;;11.60;100.00;98066.19;4883195;29;19947;-75
2022/04/20 10:42:18;;;;;;;;;;;;;;;11.69;100.00;98068.56;4882977;29;20278;-75
2022/04/20 10:44:55;;;;;;;;;;;;;;;11.72;100.00;98062.94;4883615;29;19978;-75
2022/04/20 10:47:26;;;;;;;;;;;;;;;11.76;100.00;98060.91;4883409;29;19958;-76
2022/04/20 10:50:09;;;;;;;;;;;;;;;11.67;100.00;98076.56;4883684;29;19951;-76
2022/04/20 10:52:37;;;;;;;;;;;;;;;11.84;100.00;98078.47;4883827;29;19949;-75
2022/04/20 10:55:09;;;;;;;;;;;;;;;11.81;100.00;98076.50;4882939;29;19947;-75
2022/04/20 10:57:37;;;;;;;;;;;;;;;11.64;100.00;98072.56;4884089;29;19948;-76
2022/04/20 11:00:20;;;;;;;;;;;;;;;11.71;100.00;98071.78;4884745;29;19945;-76
2022/04/20 11:02:48;;;;;;;;;;;;;;;11.80;100.00;98080.50;4882691;29;19959;-76
2022/04/20 11:05:19;;;;;;;;;;;;;;;11.82;100.00;98078.88;4883215;29;19968;-76
2022/04/20 11:08:05;;;;;;;;;;;;;;;11.82;100.00;98078.06;4882968;29;19956;-76
2022/04/20 11:10:39;;;;;;;;;;;;;;;11.90;100.00;98060.00;4884617;29;20353;-76
2022/04/20 11:19:13;;;;;;;;;;;;;;;11.97;100.00;98047.94;4867102;29;19974;-75
2022/04/20 11:21:53;;;;;;;;;;;;;;;11.99;100.00;98049.13;4883828;29;19963;-76
2022/04/20 11:24:27;;;;;;;;;;;;;;;12.07;100.00;98049.88;4882993;29;20260;-76
2022/04/20 11:26:55;;;;;;;;;;;;;;;12.19;100.00;98047.34;4883637;29;19951;-76
2022/04/20 11:29:24;;;;;;;;;;;;;;;12.26;100.00;98043.66;4882689;29;19956;-76
2022/04/20 11:31:54;;;;;;;;;;;;;;;12.33;100.00;98052.00;4883531;29;19951;-76
2022/04/20 11:34:21;;;;;;;;;;;;;;;12.37;100.00;98053.56;4882932;29;19959;-76
2022/04/20 11:36:51;;;;;;;;;;;;;;;12.39;100.00;98051.16;4883446;29;19948;-76
2022/04/20 11:39:20;;;;;;;;;;;;;;;12.46;100.00;98047.47;4882531;29;20347;-76
2022/04/20 11:41:48;;;;;;;;;;;;;;;12.49;100.00;98039.00;4883999;29;20245;-75
2022/04/20 11:44:22;;;;;;;;;;;;;;;12.60;100.00;98049.31;4883504;29;19953;-75
2022/04/20 11:46:50;;;;;;;;;;;;;;;12.74;100.00;98052.00;4867255;29;19949;-76
2022/04/20 11:49:18;;;;;;;;;;;;;;;12.72;100.00;98046.78;4883012;29;19948;-76
2022/04/20 11:51:57;;;;;;;;;;;;;;;12.81;100.00;98047.09;4882605;29;20330;-76
2022/04/20 11:54:26;;;;;;;;;;;;;;;12.97;100.00;98043.69;4866366;29;19949;-76
2022/04/20 11:57:16;;;;;;;;;;;;;;;13.05;100.00;98046.00;4882970;29;19955;-76
2022/04/20 11:59:44;;;;;;;;;;;;;;;13.08;100.00;98033.94;4883043;29;19947;-76
2022/04/20 12:02:14;;;;;;;;;;;;;;;13.07;100.00;98026.75;4882940;29;19956;-76
2022/04/20 12:04:42;;;;;;;;;;;;;;;12.96;100.00;98023.25;4882733;29;20266;-76
2022/04/20 12:07:13;;;;;;;;;;;;;;;13.11;100.00;98021.06;4867554;29;19947;-76
2022/04/20 12:09:45;;;;;;;;;;;;;;;13.15;100.00;98022.63;4882714;29;19958;-76
2022/04/20 12:12:12;;;;;;;;;;;;;;;13.38;100.00;98013.47;4883531;29;19950;-76
2022/04/20 12:14:42;;;;;;;;;;;;;;;13.35;100.00;98017.13;4884149;29;20363;-76
2022/04/20 12:17:11;;;;;;;;;;;;;;;13.22;100.00;98007.69;4902030;29;20259;-76
2022/04/20 12:19:43;;;;;;;;;;;;;;;13.40;100.00;98007.47;4904185;29;19947;-76
2022/04/20 12:22:12;;;;;;;;;;;;;;;13.44;100.00;98002.56;4887002;29;19956;-76
2022/04/20 12:24:42;;;;;;;;;;;;;;;13.48;100.00;97992.88;4887029;29;20360;-76
2022/04/20 12:27:16;;;;;;;;;;;;;;;13.56;100.00;97996.38;4886128;29;19952;-76
2022/04/20 12:29:45;;;;;;;;;;;;;;;13.50;100.00;97996.03;4885975;29;19980;-76
2022/04/20 12:32:22;;;;;;;;;;;;;;;13.70;100.00;97996.13;4892126;29;19951;-76
2022/04/20 12:34:54;;;;;;;;;;;;;;;13.88;100.00;97991.03;4904979;29;19946;-75
2022/04/20 12:37:29;;;;;;;;;;;;;;;14.10;100.00;97983.81;4904731;29;20120;-75
2022/04/20 12:40:18;;;;;;;;;;;;;;;14.04;100.00;97977.09;4885121;29;19955;-75
2022/04/20 12:43:05;;;;;;;;;;;;;;;14.08;100.00;97979.84;4889200;29;19967;-75
2022/04/20 12:45:36;;;;;;;;;;;;;;;14.07;100.00;97981.84;4899380;29;19973;-77
2022/04/20 12:48:04;;;;;;;;;;;;;;;14.07;100.00;97972.63;4885378;29;20254;-76
2022/04/20 12:50:36;;;;;;;;;;;;;;;14.05;100.00;97970.25;4889953;29;20259;-75
2022/04/20 12:53:03;;;;;;;;;;;;;;;14.21;100.00;97973.16;4903513;29;19955;-75
2022/04/20 13:04:49;;;;;;;;;;;;;;;14.46;100.00;97978.34;4810059;29;20252;-75
2022/04/20 13:07:16;;;;;;;;;;;;;;;14.43;100.00;97977.19;4892062;29;19957;-75
2022/04/20 13:09:46;;;;;;;;;;;;;;;14.29;100.00;97985.06;4904403;29;19947;-75
2022/04/20 13:12:13;;;;;;;;;;;;;;;14.29;100.00;97985.06;4904687;29;19948;-74
2022/04/20 13:14:41;;;;;;;;;;;;;;;14.23;100.00;97989.63;4901575;29;19951;-74
2022/04/20 13:17:09;;;;;;;;;;;;;;;13.90;100.00;97984.97;4892652;29;20225;-74
2022/04/20 13:19:37;;;;;;;;;;;;;;;13.94;100.00;97983.69;4901507;29;19947;-75
2022/04/20 13:22:05;;;;;;;;;;;;;;;14.13;100.00;97980.16;4903368;29;19950;-75
2022/04/20 13:30:05;;;;;;;;;;;;;;;14.11;100.00;97967.75;4900897;29;19968;-75
2022/04/20 13:32:32;;;;;;;;;;;;;;;13.97;100.00;97971.59;4900026;29;19959;-75
2022/04/20 13:35:00;;;;;;;;;;;;;;;14.02;100.00;97964.66;4896937;29;20254;-75
2022/04/20 13:37:28;;;;;;;;;;;;;;;13.92;100.00;97966.44;4901075;29;20379;-75
2022/04/20 13:39:56;;;;;;;;;;;;;;;13.82;100.00;97961.81;4902849;29;19950;-75
2022/04/20 13:42:23;;;;;;;;;;;;;;;13.81;100.00;97951.81;4888515;29;20374;-74
2022/04/20 13:44:52;;;;;;;;;;;;;;;14.02;100.00;97948.59;4898913;29;20168;-74
2022/04/20 13:47:20;;;;;;;;;;;;;;;14.12;100.00;97958.06;4900051;29;19955;-74
2022/04/20 13:49:47;;;;;;;;;;;;;;;14.01;100.00;97949.03;4903003;29;19955;-74
2022/04/20 13:52:15;;;;;;;;;;;;;;;13.96;100.00;97946.72;4902724;29;19980;-76
2022/04/20 13:54:43;;;;;;;;;;;;;;;14.15;100.00;97948.78;4901240;29;19957;-75
2022/04/20 13:57:10;;;;;;;;;;;;;;;14.15;100.00;97937.53;4895430;29;19955;-75
2022/04/20 13:59:37;;;;;;;;;;;;;;;14.07;100.00;97931.25;4892619;29;20252;-75
2022/04/20 14:02:05;;;;;;;;;;;;;;;14.02;100.00;97936.56;4882093;29;19948;-75
2022/04/20 14:04:32;;;;;;;;;;;;;;;14.10;100.00;97940.84;4891197;29;19953;-75
2022/04/20 14:06:59;;;;;;;;;;;;;;;14.02;100.00;97942.19;4889231;29;20252;-75
2022/04/20 14:09:27;;;;;;;;;;;;;;;14.25;100.00;97936.53;4893563;29;19950;-75
2022/04/20 14:11:55;;;;;;;;;;;;;;;14.24;100.00;97935.75;4902518;29;19949;-75
2022/04/20 14:14:22;;;;;;;;;;;;;;;14.21;100.00;97939.41;4903192;29;19954;-75
2022/04/20 14:16:49;;;;;;;;;;;;;;;14.26;100.00;97929.69;4895063;29;19952;-76
2022/04/20 14:19:17;;;;;;;;;;;;;;;14.19;100.00;97935.44;4895610;29;19960;-75
2022/04/20 14:21:44;;;;;;;;;;;;;;;14.29;100.00;97940.88;4899105;29;20324;-75
2022/04/20 14:24:12;;;;;;;;;;;;;;;14.31;100.00;97938.44;4902579;29;19962;-74
2022/04/20 14:32:12;;;;;;;;;;;;;;;14.42;100.00;97927.78;4900978;29;20254;-75
2022/04/20 14:34:40;;;;;;;;;;;;;;;14.34;100.00;97926.34;4899502;29;20341;-76
2022/04/20 14:37:07;;;;;;;;;;;;;;;14.32;100.00;97936.44;4901321;29;19947;-74
2022/04/20 14:39:35;;;;;;;;;;;;;;;14.19;100.00;97929.81;4892480;29;19949;-74
2022/04/20 14:42:03;;;;;;;;;;;;;;;14.28;100.00;97930.06;4895784;29;19955;-74
2022/04/20 14:44:31;;;;;;;;;;;;;;;14.27;100.00;97925.66;4901592;29;19949;-75
2022/04/20 14:46:59;;;;;;;;;;;;;;;14.33;100.00;97921.94;4901400;29;19973;-75
2022/04/20 14:49:26;;;;;;;;;;;;;;;14.26;100.00;97926.84;4901977;29;19953;-76
2022/04/20 14:51:56;;;;;;;;;;;;;;;14.02;100.00;97928.94;4907641;29;19951;-76
2022/04/20 14:54:24;;;;;;;;;;;;;;;14.13;100.00;97923.13;4894755;29;19959;-75
2022/04/20 14:56:51;;;;;;;;;;;;;;;14.02;100.00;97911.25;4899958;29;19983;-75
2022/04/20 14:59:18;;;;;;;;;;;;;;;14.16;100.00;97916.59;4903148;29;20253;-74
2022/04/20 15:01:45;;;;;;;;;;;;;;;14.12;100.00;97924.31;4902011;29;19955;-75
2022/04/20 15:04:13;;;;;;;;;;;;;;;14.25;100.00;97917.66;4901974;29;19977;-75
2022/04/20 15:06:40;;;;;;;;;;;;;;;14.12;100.00;97915.88;4901330;29;19965;-75
2022/04/20 15:09:08;;;;;;;;;;;;;;;13.92;100.00;97927.09;4896344;29;19956;-75
2022/04/20 15:11:37;;;;;;;;;;;;;;;14.00;100.00;97916.53;4899765;29;19956;-75
2022/04/20 15:14:04;;;;;;;;;;;;;;;14.04;100.00;97926.47;4892309;29;19953;-75
2022/04/20 15:16:31;;;;;;;;;;;;;;;13.89;100.00;97916.72;4898931;29;20246;-76
2022/04/20 15:18:59;;;;;;;;;;;;;;;13.79;100.00;97912.88;4900183;29;20348;-75
2022/04/20 15:21:26;;;;;;;;;;;;;;;13.71;100.00;97911.44;4901062;29;19951;-74
2022/04/20 15:23:54;;;;;;;;;;;;;;;13.80;100.00;97908.84;4888967;29;19951;-74
2022/04/20 15:26:21;;;;;;;;;;;;;;;13.84;100.00;97915.19;4898850;29;20258;-75
2022/04/20 15:28:49;;;;;;;;;;;;;;;13.80;100.00;97911.66;4901453;29;19954;-75
2022/04/20 15:31:16;;;;;;;;;;;;;;;13.77;100.00;97898.47;4901808;29;19973;-76
2022/04/20 15:33:45;;;;;;;;;;;;;;;13.75;100.00;97909.34;4901896;29;19965;-76
2022/04/20 15:36:13;;;;;;;;;;;;;;;13.86;100.00;97900.72;4901807;29;20243;-75
2022/04/20 15:38:40;;;;;;;;;;;;;;;13.99;100.00;97895.25;4901817;29;20234;-75
2022/04/20 15:41:10;;;;;;;;;;;;;;;14.02;100.00;97900.00;4900990;29;19956;-75
2022/04/20 15:43:40;;;;;;;;;;;;;;;14.03;100.00;97902.41;4901613;29;20278;-75
2022/04/20 15:46:08;;;;;;;;;;;;;;;14.06;100.00;97897.94;4901892;29;19963;-75
2022/04/20 15:48:36;;;;;;;;;;;;;;;14.07;100.00;97902.34;4902059;29;19953;-76
2022/04/20 15:51:04;;;;;;;;;;;;;;;14.00;100.00;97903.28;4905506;29;19953;-76
2022/04/20 15:53:31;;;;;;;;;;;;;;;14.08;100.00;97904.72;4905166;29;20269;-76
2022/04/20 16:01:31;;;;;;;;;;;;;;;14.10;100.00;97907.09;4904910;29;19958;-75
2022/04/20 16:03:59;;;;;;;;;;;;;;;13.95;100.00;97903.75;4902474;29;19960;-74
2022/04/20 16:06:27;;;;;;;;;;;;;;;13.90;100.00;97900.66;4903693;29;19968;-74
2022/04/20 16:08:54;;;;;;;;;;;;;;;13.88;100.00;97903.09;4904472;29;19948;-74
2022/04/20 16:11:22;;;;;;;;;;;;;;;13.86;100.00;97897.91;4904638;29;19956;-76
2022/04/20 16:13:49;;;;;;;;;;;;;;;13.86;100.00;97899.94;4904811;29;19966;-75
2022/04/20 16:16:16;;;;;;;;;;;;;;;13.82;100.00;97895.16;4905337;29;20250;-75
2022/04/20 16:18:44;;;;;;;;;;;;;;;13.69;100.00;97899.03;4905230;29;20367;-76
2022/04/20 16:21:11;;;;;;;;;;;;;;;13.62;100.00;97893.53;4905033;29;20344;-76
2022/04/20 16:23:39;;;;;;;;;;;;;;;13.71;100.00;97896.56;4904733;29;19946;-75
2022/04/20 16:26:07;;;;;;;;;;;;;;;13.62;100.00;97896.34;4904681;29;19949;-74
2022/04/20 16:28:34;;;;;;;;;;;;;;;13.61;100.00;97887.13;4903022;29;20274;-75
2022/04/20 16:31:02;;;;;;;;;;;;;;;13.65;100.00;97889.84;4891034;29;19969;-76
2022/04/20 16:33:30;;;;;;;;;;;;;;;13.61;100.00;97891.94;4888252;29;19956;-75
2022/04/20 16:35:59;;;;;;;;;;;;;;;13.49;100.00;97887.72;4903923;29;19949;-74
2022/04/20 16:38:26;;;;;;;;;;;;;;;13.45;100.00;97881.34;4888876;29;19949;-75
2022/04/20 16:40:55;;;;;;;;;;;;;;;13.51;100.00;97888.09;4885742;29;20248;-75
2022/04/20 16:43:22;;;;;;;;;;;;;;;13.49;100.00;97881.31;4892092;29;19954;-75
2022/04/20 16:45:51;;;;;;;;;;;;;;;13.40;100.00;97878.25;4903668;29;19960;-75
2022/04/20 16:48:19;;;;;;;;;;;;;;;13.50;100.00;97880.88;4904615;29;19967;-75
2022/04/20 16:50:46;;;;;;;;;;;;;;;13.51;100.00;97893.72;4904749;29;19952;-75
2022/04/20 16:53:13;;;;;;;;;;;;;;;13.50;100.00;97894.91;4902935;29;19962;-75
2022/04/20 16:55:40;;;;;;;;;;;;;;;13.44;100.00;97896.63;4898706;29;20218;-75
2022/04/20 16:58:08;;;;;;;;;;;;;;;13.37;100.00;97899.56;4900241;29;19963;-75
2022/04/20 17:00:35;;;;;;;;;;;;;;;13.34;100.00;97894.78;4897949;29;19959;-75
2022/04/20 17:03:03;;;;;;;;;;;;;;;13.32;100.00;97894.44;4901799;29;19951;-74
2022/04/20 17:05:30;;;;;;;;;;;;;;;13.31;100.00;97895.63;4898473;29;19949;-75
2022/04/20 17:08:00;;;;;;;;;;;;;;;13.28;100.00;97884.47;4904382;29;19974;-76
2022/04/20 17:10:27;;;;;;;;;;;;;;;13.24;100.00;97886.53;4900388;29;20247;-74
2022/04/20 17:12:54;;;;;;;;;;;;;;;13.19;100.00;97879.41;4901890;29;19953;-75
2022/04/20 17:15:22;;;;;;;;;;;;;;;13.14;100.00;97871.44;4897109;29;19951;-75
2022/04/20 17:17:49;;;;;;;;;;;;;;;13.14;100.00;97877.88;4901017;29;19954;-75
2022/04/20 17:28:33;;;;;;;;;;;;;;;13.02;100.00;97884.03;4902891;29;19965;-74
2022/04/20 17:31:00;;;;;;;;;;;;;;;13.04;100.00;97887.22;4896391;29;20001;-75
2022/04/20 17:33:28;;;;;;;;;;;;;;;13.02;100.00;97891.66;4892880;29;20245;-73
2022/04/20 17:38:41;;;;;;;;;;;;;;;12.85;100.00;97889.91;4902776;29;19948;-75
2022/04/20 17:41:08;;;;;;;;;;;;;;;12.74;100.00;97878.81;4902228;29;19952;-75
2022/04/20 17:43:35;;;;;;;;;;;;;;;12.82;100.00;97879.53;4900865;29;20239;-75
2022/04/20 17:46:02;;;;;;;;;;;;;;;12.65;100.00;97874.97;4893618;29;20246;-75
2022/04/20 17:48:31;;;;;;;;;;;;;;;12.75;100.00;97885.25;4901516;29;19967;-75
2022/04/20 17:50:58;;;;;;;;;;;;;;;12.66;100.00;97879.38;4896486;29;20336;-74
2022/04/20 17:53:26;;;;;;;;;;;;;;;12.51;100.00;97882.38;4885385;29;19951;-73
2022/04/20 17:55:55;;;;;;;;;;;;;;;12.42;100.00;97881.28;4899018;29;19950;-75
2022/04/20 17:58:23;;;;;;;;;;;;;;;12.48;100.00;97880.41;4888320;29;19947;-74
2022/04/20 18:00:50;;;;;;;;;;;;;;;12.37;100.00;97885.34;4898144;29;19950;-75
2022/04/20 18:03:18;;;;;;;;;;;;;;;12.30;100.00;97888.22;4899625;29;19951;-75
2022/04/20 18:05:46;;;;;;;;;;;;;;;12.18;100.00;97890.78;4900952;29;19953;-74
2022/04/20 18:08:13;;;;;;;;;;;;;;;12.19;100.00;97890.38;4902537;29;19967;-74
2022/04/20 18:10:40;;;;;;;;;;;;;;;12.19;100.00;97881.16;4901896;29;19957;-75
2022/04/20 18:13:08;;;;;;;;;;;;;;;12.15;100.00;97888.84;4902761;29;20300;-74
2022/04/20 18:15:35;;;;;;;;;;;;;;;12.10;100.00;97887.28;4902320;29;19958;-74
2022/04/20 18:18:02;;;;;;;;;;;;;;;12.05;100.00;97892.53;4900895;29;19951;-74
2022/04/20 18:20:30;;;;;;;;;;;;;;;12.04;100.00;97894.53;4899587;29;19955;-77
2022/04/20 18:22:57;;;;;;;;;;;;;;;12.01;100.00;97900.97;4899216;29;19951;-73
2022/04/20 18:25:25;;;;;;;;;;;;;;;11.99;100.00;97900.59;4895286;29;19958;-77
2022/04/20 18:27:52;;;;;;;;;;;;;;;11.86;100.00;97899.53;4883236;29;19973;-76
2022/04/20 18:30:20;;;;;;;;;;;;;;;11.86;100.00;97900.34;4901238;29;19968;-76
2022/04/20 18:32:47;;;;;;;;;;;;;;;11.83;100.00;97900.38;4895763;29;19950;-76
2022/04/20 18:35:15;;;;;;;;;;;;;;;11.72;100.00;97902.47;4904088;29;20324;-75
2022/04/20 18:37:42;;;;;;;;;;;;;;;11.68;100.00;97904.53;4900113;29;20246;-76